Ana Sayfa
METAR-TAF:

METAR-TAF

Havaalanları :

Nakşa, Yunanistan

Enlem: 37-04-47N, Boylam: 025-22-01E, yükseklik: 3 m

Güncel hava durumu gözlemi

Rapor saat 11:50 UTC de 1 saat ve 9 dakika önce yapıldı.
Rüzgar kuzeydan 17 kt
Sıcaklık 27°C
Nem 66%
Basınç 1009 hPa
Görüş mesafesi 10 km veya daha fazla
1500 m altında bulut yok ve kümülonimbus yok

METAR: LGNX 201150Z 01017KT CAVOK 27/20 Q1009

Saat: 15:59 (12:59 UTC)


TAF: eksik

4.000'den fazla havaalanı için hava durumu gözlemleri ve tahminleri (METAR ve TAF raporları).

Kullanılabilir istasyonlar harita üzerinde sarı ve kırmızı noktalarla gösterilir.

İstasyonun adını görmek için fareyi noktanın üzerinde gezdirin.

Sonrasında hava gözlem ve tahminlerini görmek için tıklayın.

Haritayı değiştirmek için: yaklaştırmak için siyah artı işaretli yeşil düğmeye ve uzaklaştırmak için de eksi işaretli düğmeye hızla tıklayın; bitişik haritalar için yeşil okları kullanın.


METAR-TAF: